sensor_id;sensor_type;location;lat;lon;timestamp;temperature;humidity
51615;DHT22;37695;52.960;6.188;2023-05-07T00:00:33;13.90;99.90
51615;DHT22;37695;52.960;6.188;2023-05-07T00:02:59;14.00;99.90
51615;DHT22;37695;52.960;6.188;2023-05-07T00:05:25;14.00;99.90
51615;DHT22;37695;52.960;6.188;2023-05-07T00:07:51;14.00;99.90
51615;DHT22;37695;52.960;6.188;2023-05-07T00:10:18;14.00;99.90
51615;DHT22;37695;52.960;6.188;2023-05-07T00:12:44;14.00;99.90
51615;DHT22;37695;52.960;6.188;2023-05-07T00:15:10;14.00;99.90
51615;DHT22;37695;52.960;6.188;2023-05-07T00:17:35;14.00;99.90
51615;DHT22;37695;52.960;6.188;2023-05-07T00:20:02;13.90;99.90
51615;DHT22;37695;52.960;6.188;2023-05-07T00:22:29;13.90;99.90
51615;DHT22;37695;52.960;6.188;2023-05-07T00:24:55;13.90;99.90
51615;DHT22;37695;52.960;6.188;2023-05-07T00:27:22;13.90;99.90
51615;DHT22;37695;52.960;6.188;2023-05-07T00:29:47;13.90;99.90
51615;DHT22;37695;52.960;6.188;2023-05-07T00:32:13;13.90;99.90
51615;DHT22;37695;52.960;6.188;2023-05-07T00:34:38;13.90;99.90
51615;DHT22;37695;52.960;6.188;2023-05-07T00:37:05;13.80;99.90
51615;DHT22;37695;52.960;6.188;2023-05-07T00:39:32;13.80;99.90
51615;DHT22;37695;52.960;6.188;2023-05-07T00:41:58;13.80;99.90
51615;DHT22;37695;52.960;6.188;2023-05-07T00:44:24;13.70;99.90
51615;DHT22;37695;52.960;6.188;2023-05-07T00:46:50;13.70;99.90
51615;DHT22;37695;52.960;6.188;2023-05-07T00:49:16;13.60;99.90
51615;DHT22;37695;52.960;6.188;2023-05-07T00:51:42;13.60;99.90
51615;DHT22;37695;52.960;6.188;2023-05-07T00:54:08;13.60;99.90
51615;DHT22;37695;52.960;6.188;2023-05-07T00:56:34;13.50;99.90
51615;DHT22;37695;52.960;6.188;2023-05-07T00:59:01;13.50;99.90
51615;DHT22;37695;52.960;6.188;2023-05-07T01:01:27;13.50;99.90
51615;DHT22;37695;52.960;6.188;2023-05-07T01:03:53;13.50;99.90
51615;DHT22;37695;52.960;6.188;2023-05-07T01:06:19;13.50;99.90
51615;DHT22;37695;52.960;6.188;2023-05-07T01:08:46;13.60;99.90
51615;DHT22;37695;52.960;6.188;2023-05-07T01:11:13;13.60;99.90
51615;DHT22;37695;52.960;6.188;2023-05-07T01:13:39;13.60;99.90
51615;DHT22;37695;52.960;6.188;2023-05-07T01:16:06;13.60;99.90
51615;DHT22;37695;52.960;6.188;2023-05-07T01:18:32;13.50;99.90
51615;DHT22;37695;52.960;6.188;2023-05-07T01:20:58;13.50;99.90
51615;DHT22;37695;52.960;6.188;2023-05-07T01:23:25;13.50;99.90
51615;DHT22;37695;52.960;6.188;2023-05-07T01:25:53;14.00;99.90
51615;DHT22;37695;52.960;6.188;2023-05-07T01:28:19;13.50;99.90
51615;DHT22;37695;52.960;6.188;2023-05-07T01:30:49;13.50;99.90
51615;DHT22;37695;52.960;6.188;2023-05-07T01:33:19;13.50;99.90
51615;DHT22;37695;52.960;6.188;2023-05-07T01:35:49;13.50;99.90
51615;DHT22;37695;52.960;6.188;2023-05-07T01:38:16;13.50;99.90
51615;DHT22;37695;52.960;6.188;2023-05-07T01:40:42;13.50;99.90
51615;DHT22;37695;52.960;6.188;2023-05-07T01:43:08;13.50;99.90
51615;DHT22;37695;52.960;6.188;2023-05-07T01:45:35;13.40;99.90
51615;DHT22;37695;52.960;6.188;2023-05-07T01:48:01;13.40;99.90
51615;DHT22;37695;52.960;6.188;2023-05-07T01:50:27;13.40;99.90
51615;DHT22;37695;52.960;6.188;2023-05-07T01:52:53;13.40;99.90
51615;DHT22;37695;52.960;6.188;2023-05-07T01:55:19;13.40;99.90
51615;DHT22;37695;52.960;6.188;2023-05-07T01:57:44;13.30;99.90
51615;DHT22;37695;52.960;6.188;2023-05-07T02:00:10;13.30;99.90
51615;DHT22;37695;52.960;6.188;2023-05-07T02:02:36;13.20;99.90
51615;DHT22;37695;52.960;6.188;2023-05-07T02:05:01;13.20;99.90
51615;DHT22;37695;52.960;6.188;2023-05-07T02:07:27;13.20;99.90
51615;DHT22;37695;52.960;6.188;2023-05-07T02:09:53;13.20;99.90
51615;DHT22;37695;52.960;6.188;2023-05-07T02:12:21;13.10;99.90
51615;DHT22;37695;52.960;6.188;2023-05-07T02:14:46;13.10;99.90
51615;DHT22;37695;52.960;6.188;2023-05-07T02:17:12;13.10;99.90
51615;DHT22;37695;52.960;6.188;2023-05-07T02:19:37;13.10;99.90
51615;DHT22;37695;52.960;6.188;2023-05-07T02:22:03;13.00;99.90
51615;DHT22;37695;52.960;6.188;2023-05-07T02:24:28;13.00;99.90
51615;DHT22;37695;52.960;6.188;2023-05-07T02:26:54;12.90;99.90
51615;DHT22;37695;52.960;6.188;2023-05-07T02:29:19;13.00;99.90
51615;DHT22;37695;52.960;6.188;2023-05-07T02:31:45;13.00;99.90
51615;DHT22;37695;52.960;6.188;2023-05-07T02:34:10;12.20;99.90
51615;DHT22;37695;52.960;6.188;2023-05-07T02:36:36;12.90;99.90
51615;DHT22;37695;52.960;6.188;2023-05-07T02:39:02;12.90;99.90
51615;DHT22;37695;52.960;6.188;2023-05-07T02:41:28;12.90;99.90
51615;DHT22;37695;52.960;6.188;2023-05-07T02:43:53;12.80;99.90
51615;DHT22;37695;52.960;6.188;2023-05-07T02:46:19;12.80;99.90
51615;DHT22;37695;52.960;6.188;2023-05-07T02:48:44;12.80;99.90
51615;DHT22;37695;52.960;6.188;2023-05-07T02:51:10;12.80;99.90
51615;DHT22;37695;52.960;6.188;2023-05-07T02:53:36;12.70;99.90
51615;DHT22;37695;52.960;6.188;2023-05-07T02:56:02;12.70;99.90
51615;DHT22;37695;52.960;6.188;2023-05-07T02:58:28;12.70;99.90
51615;DHT22;37695;52.960;6.188;2023-05-07T03:00:53;12.70;99.90
51615;DHT22;37695;52.960;6.188;2023-05-07T03:03:20;12.70;99.90
51615;DHT22;37695;52.960;6.188;2023-05-07T03:05:46;12.70;99.90
51615;DHT22;37695;52.960;6.188;2023-05-07T03:08:11;12.60;99.90
51615;DHT22;37695;52.960;6.188;2023-05-07T03:10:37;12.60;99.90
51615;DHT22;37695;52.960;6.188;2023-05-07T03:13:03;12.60;99.90
51615;DHT22;37695;52.960;6.188;2023-05-07T03:15:29;12.60;99.90
51615;DHT22;37695;52.960;6.188;2023-05-07T03:17:55;12.50;99.90
51615;DHT22;37695;52.960;6.188;2023-05-07T03:20:21;12.50;99.90
51615;DHT22;37695;52.960;6.188;2023-05-07T03:22:47;12.50;99.90
51615;DHT22;37695;52.960;6.188;2023-05-07T03:25:13;12.40;99.90
51615;DHT22;37695;52.960;6.188;2023-05-07T03:27:40;12.50;99.90
51615;DHT22;37695;52.960;6.188;2023-05-07T03:30:07;12.40;99.90
51615;DHT22;37695;52.960;6.188;2023-05-07T03:32:34;12.40;99.90
51615;DHT22;37695;52.960;6.188;2023-05-07T03:35:00;12.40;99.90
51615;DHT22;37695;52.960;6.188;2023-05-07T03:37:26;12.30;99.90
51615;DHT22;37695;52.960;6.188;2023-05-07T03:39:51;12.30;99.90
51615;DHT22;37695;52.960;6.188;2023-05-07T03:42:17;12.30;99.90
51615;DHT22;37695;52.960;6.188;2023-05-07T03:44:42;12.20;99.90
51615;DHT22;37695;52.960;6.188;2023-05-07T03:47:08;12.20;99.90
51615;DHT22;37695;52.960;6.188;2023-05-07T03:49:35;12.20;99.90
51615;DHT22;37695;52.960;6.188;2023-05-07T03:52:01;12.20;99.90
51615;DHT22;37695;52.960;6.188;2023-05-07T03:54:26;12.20;99.90
51615;DHT22;37695;52.960;6.188;2023-05-07T03:56:52;12.20;99.90
51615;DHT22;37695;52.960;6.188;2023-05-07T03:59:17;12.10;99.90
51615;DHT22;37695;52.960;6.188;2023-05-07T04:01:43;12.10;99.90
51615;DHT22;37695;52.960;6.188;2023-05-07T04:04:08;12.10;99.90
51615;DHT22;37695;52.960;6.188;2023-05-07T04:06:34;12.00;99.90
51615;DHT22;37695;52.960;6.188;2023-05-07T04:08:59;12.00;99.90
51615;DHT22;37695;52.960;6.188;2023-05-07T04:11:25;12.00;99.90
51615;DHT22;37695;52.960;6.188;2023-05-07T04:13:51;12.00;99.90
51615;DHT22;37695;52.960;6.188;2023-05-07T04:16:16;12.00;99.90
51615;DHT22;37695;52.960;6.188;2023-05-07T04:18:42;12.00;99.90
51615;DHT22;37695;52.960;6.188;2023-05-07T04:21:15;12.00;99.90
51615;DHT22;37695;52.960;6.188;2023-05-07T04:23:40;12.00;99.90
51615;DHT22;37695;52.960;6.188;2023-05-07T04:26:06;12.00;99.90
51615;DHT22;37695;52.960;6.188;2023-05-07T04:28:32;12.00;99.90
51615;DHT22;37695;52.960;6.188;2023-05-07T04:30:57;11.90;99.90
51615;DHT22;37695;52.960;6.188;2023-05-07T04:33:23;11.90;99.90
51615;DHT22;37695;52.960;6.188;2023-05-07T04:35:48;11.90;99.90
51615;DHT22;37695;52.960;6.188;2023-05-07T04:38:14;12.00;99.90
51615;DHT22;37695;52.960;6.188;2023-05-07T04:40:40;11.90;99.90
51615;DHT22;37695;52.960;6.188;2023-05-07T04:43:06;12.00;99.90
51615;DHT22;37695;52.960;6.188;2023-05-07T04:45:32;12.90;99.90
51615;DHT22;37695;52.960;6.188;2023-05-07T04:47:58;12.00;99.90
51615;DHT22;37695;52.960;6.188;2023-05-07T04:50:23;12.00;99.90
51615;DHT22;37695;52.960;6.188;2023-05-07T04:52:49;12.00;99.90
51615;DHT22;37695;52.960;6.188;2023-05-07T04:55:15;12.10;99.90
51615;DHT22;37695;52.960;6.188;2023-05-07T04:57:41;12.00;99.90
51615;DHT22;37695;52.960;6.188;2023-05-07T05:00:07;12.00;99.90
51615;DHT22;37695;52.960;6.188;2023-05-07T05:02:36;12.00;99.90
51615;DHT22;37695;52.960;6.188;2023-05-07T05:05:02;12.00;99.90
51615;DHT22;37695;52.960;6.188;2023-05-07T05:07:28;12.00;99.90
51615;DHT22;37695;52.960;6.188;2023-05-07T05:09:54;12.00;99.90
51615;DHT22;37695;52.960;6.188;2023-05-07T05:12:20;12.00;99.90
51615;DHT22;37695;52.960;6.188;2023-05-07T05:14:45;12.00;99.90
51615;DHT22;37695;52.960;6.188;2023-05-07T05:17:11;12.00;99.90
51615;DHT22;37695;52.960;6.188;2023-05-07T05:19:36;12.00;99.90
51615;DHT22;37695;52.960;6.188;2023-05-07T05:22:02;12.00;99.90
51615;DHT22;37695;52.960;6.188;2023-05-07T05:24:29;12.00;99.90
51615;DHT22;37695;52.960;6.188;2023-05-07T05:26:55;12.10;99.90
51615;DHT22;37695;52.960;6.188;2023-05-07T05:29:21;12.10;99.90
51615;DHT22;37695;52.960;6.188;2023-05-07T05:31:46;12.20;99.90
51615;DHT22;37695;52.960;6.188;2023-05-07T05:34:12;12.10;99.90
51615;DHT22;37695;52.960;6.188;2023-05-07T05:36:37;12.20;99.90
51615;DHT22;37695;52.960;6.188;2023-05-07T05:39:03;12.20;99.90
51615;DHT22;37695;52.960;6.188;2023-05-07T05:41:29;12.20;99.90
51615;DHT22;37695;52.960;6.188;2023-05-07T05:43:55;12.20;99.90
51615;DHT22;37695;52.960;6.188;2023-05-07T05:46:20;12.20;99.90
51615;DHT22;37695;52.960;6.188;2023-05-07T05:48:46;12.20;99.90
51615;DHT22;37695;52.960;6.188;2023-05-07T05:51:11;12.30;99.90
51615;DHT22;37695;52.960;6.188;2023-05-07T05:53:36;12.30;99.90
51615;DHT22;37695;52.960;6.188;2023-05-07T05:56:02;12.30;99.90
51615;DHT22;37695;52.960;6.188;2023-05-07T05:58:28;12.30;99.90
51615;DHT22;37695;52.960;6.188;2023-05-07T06:00:53;12.30;99.90
51615;DHT22;37695;52.960;6.188;2023-05-07T06:03:19;12.40;99.90
51615;DHT22;37695;52.960;6.188;2023-05-07T06:05:45;12.40;99.90
51615;DHT22;37695;52.960;6.188;2023-05-07T06:08:11;12.40;99.90
51615;DHT22;37695;52.960;6.188;2023-05-07T06:10:37;12.50;99.90
51615;DHT22;37695;52.960;6.188;2023-05-07T06:13:02;12.60;99.90
51615;DHT22;37695;52.960;6.188;2023-05-07T06:15:28;12.60;99.90
51615;DHT22;37695;52.960;6.188;2023-05-07T06:17:53;12.60;99.90
51615;DHT22;37695;52.960;6.188;2023-05-07T06:20:21;12.60;99.90
51615;DHT22;37695;52.960;6.188;2023-05-07T06:22:46;12.70;99.90
51615;DHT22;37695;52.960;6.188;2023-05-07T06:25:12;12.70;99.90
51615;DHT22;37695;52.960;6.188;2023-05-07T06:27:37;12.70;99.90
51615;DHT22;37695;52.960;6.188;2023-05-07T06:30:05;12.90;99.90
51615;DHT22;37695;52.960;6.188;2023-05-07T06:32:31;12.90;99.90
51615;DHT22;37695;52.960;6.188;2023-05-07T06:34:57;13.00;99.90
51615;DHT22;37695;52.960;6.188;2023-05-07T06:37:22;13.00;99.90
51615;DHT22;37695;52.960;6.188;2023-05-07T06:39:48;13.10;99.90
51615;DHT22;37695;52.960;6.188;2023-05-07T06:42:13;13.10;99.90
51615;DHT22;37695;52.960;6.188;2023-05-07T06:44:39;13.10;99.90
51615;DHT22;37695;52.960;6.188;2023-05-07T06:47:04;13.10;99.90
51615;DHT22;37695;52.960;6.188;2023-05-07T06:49:30;13.10;99.90
51615;DHT22;37695;52.960;6.188;2023-05-07T06:51:57;13.10;99.90
51615;DHT22;37695;52.960;6.188;2023-05-07T06:54:22;13.10;99.90
51615;DHT22;37695;52.960;6.188;2023-05-07T06:56:48;13.20;99.90
51615;DHT22;37695;52.960;6.188;2023-05-07T06:59:14;13.20;99.90
51615;DHT22;37695;52.960;6.188;2023-05-07T07:01:39;13.20;99.90
51615;DHT22;37695;52.960;6.188;2023-05-07T07:04:05;13.30;99.90
51615;DHT22;37695;52.960;6.188;2023-05-07T07:06:31;13.30;99.90
51615;DHT22;37695;52.960;6.188;2023-05-07T07:08:58;13.40;99.90
51615;DHT22;37695;52.960;6.188;2023-05-07T07:11:23;13.40;99.90
51615;DHT22;37695;52.960;6.188;2023-05-07T07:13:49;13.50;99.90
51615;DHT22;37695;52.960;6.188;2023-05-07T07:16:16;13.50;99.90
51615;DHT22;37695;52.960;6.188;2023-05-07T07:18:41;13.60;99.90
51615;DHT22;37695;52.960;6.188;2023-05-07T07:21:07;13.70;99.90
51615;DHT22;37695;52.960;6.188;2023-05-07T07:23:32;13.90;99.90
51615;DHT22;37695;52.960;6.188;2023-05-07T07:25:58;14.00;99.90
51615;DHT22;37695;52.960;6.188;2023-05-07T07:28:23;14.20;99.90
51615;DHT22;37695;52.960;6.188;2023-05-07T07:30:49;14.30;99.90
51615;DHT22;37695;52.960;6.188;2023-05-07T07:33:15;14.40;99.90
51615;DHT22;37695;52.960;6.188;2023-05-07T07:35:40;14.50;99.90
51615;DHT22;37695;52.960;6.188;2023-05-07T07:38:06;14.50;99.90
51615;DHT22;37695;52.960;6.188;2023-05-07T07:40:31;14.60;99.90
51615;DHT22;37695;52.960;6.188;2023-05-07T07:42:59;14.60;99.90
51615;DHT22;37695;52.960;6.188;2023-05-07T07:45:26;14.70;99.90
51615;DHT22;37695;52.960;6.188;2023-05-07T07:47:52;14.70;99.90
51615;DHT22;37695;52.960;6.188;2023-05-07T07:50:17;14.80;99.90
51615;DHT22;37695;52.960;6.188;2023-05-07T07:52:43;14.80;99.90
51615;DHT22;37695;52.960;6.188;2023-05-07T07:55:09;14.90;99.90
51615;DHT22;37695;52.960;6.188;2023-05-07T07:57:35;15.00;99.90
51615;DHT22;37695;52.960;6.188;2023-05-07T08:00:00;15.10;99.90
51615;DHT22;37695;52.960;6.188;2023-05-07T08:02:26;15.10;99.90
51615;DHT22;37695;52.960;6.188;2023-05-07T08:04:51;15.20;99.90
51615;DHT22;37695;52.960;6.188;2023-05-07T08:07:17;15.30;99.90
51615;DHT22;37695;52.960;6.188;2023-05-07T08:09:45;15.40;99.90
51615;DHT22;37695;52.960;6.188;2023-05-07T08:12:11;15.50;99.90
51615;DHT22;37695;52.960;6.188;2023-05-07T08:14:37;15.50;99.90
51615;DHT22;37695;52.960;6.188;2023-05-07T08:17:02;15.60;99.90
51615;DHT22;37695;52.960;6.188;2023-05-07T08:19:28;15.60;99.90
51615;DHT22;37695;52.960;6.188;2023-05-07T08:21:53;15.60;99.90
51615;DHT22;37695;52.960;6.188;2023-05-07T08:24:20;15.60;99.90
51615;DHT22;37695;52.960;6.188;2023-05-07T08:26:46;15.70;99.90
51615;DHT22;37695;52.960;6.188;2023-05-07T08:29:11;16.10;99.90
51615;DHT22;37695;52.960;6.188;2023-05-07T08:31:37;15.80;99.90
51615;DHT22;37695;52.960;6.188;2023-05-07T08:34:04;15.80;99.90
51615;DHT22;37695;52.960;6.188;2023-05-07T08:36:30;15.90;99.90
51615;DHT22;37695;52.960;6.188;2023-05-07T08:38:56;15.90;99.90
51615;DHT22;37695;52.960;6.188;2023-05-07T08:41:21;16.00;99.90
51615;DHT22;37695;52.960;6.188;2023-05-07T08:43:50;16.10;99.90
51615;DHT22;37695;52.960;6.188;2023-05-07T08:46:18;16.10;99.90
51615;DHT22;37695;52.960;6.188;2023-05-07T08:48:45;16.20;99.90
51615;DHT22;37695;52.960;6.188;2023-05-07T08:51:14;16.30;99.90
51615;DHT22;37695;52.960;6.188;2023-05-07T08:53:41;16.30;99.90
51615;DHT22;37695;52.960;6.188;2023-05-07T08:56:08;16.40;99.90
51615;DHT22;37695;52.960;6.188;2023-05-07T08:58:34;16.40;99.90
51615;DHT22;37695;52.960;6.188;2023-05-07T09:01:04;16.40;99.90
51615;DHT22;37695;52.960;6.188;2023-05-07T09:03:32;16.40;99.90
51615;DHT22;37695;52.960;6.188;2023-05-07T09:05:57;16.50;99.90
51615;DHT22;37695;52.960;6.188;2023-05-07T09:08:27;16.60;99.90
51615;DHT22;37695;52.960;6.188;2023-05-07T09:10:53;16.80;99.90
51615;DHT22;37695;52.960;6.188;2023-05-07T09:13:19;17.00;99.90
51615;DHT22;37695;52.960;6.188;2023-05-07T09:15:45;17.20;99.90
51615;DHT22;37695;52.960;6.188;2023-05-07T09:18:11;17.30;99.90
51615;DHT22;37695;52.960;6.188;2023-05-07T09:20:37;17.50;99.90
51615;DHT22;37695;52.960;6.188;2023-05-07T09:23:03;17.60;99.90
51615;DHT22;37695;52.960;6.188;2023-05-07T09:25:30;17.80;99.90
51615;DHT22;37695;52.960;6.188;2023-05-07T09:27:57;17.90;99.90
51615;DHT22;37695;52.960;6.188;2023-05-07T09:30:22;18.10;99.90
51615;DHT22;37695;52.960;6.188;2023-05-07T09:32:48;18.00;99.90
51615;DHT22;37695;52.960;6.188;2023-05-07T09:35:17;18.00;99.90
51615;DHT22;37695;52.960;6.188;2023-05-07T09:37:43;18.20;99.90
51615;DHT22;37695;52.960;6.188;2023-05-07T09:40:23;18.10;99.90
51615;DHT22;37695;52.960;6.188;2023-05-07T09:42:50;18.20;99.90
51615;DHT22;37695;52.960;6.188;2023-05-07T09:45:41;18.20;99.90
51615;DHT22;37695;52.960;6.188;2023-05-07T09:48:08;18.30;99.90
51615;DHT22;37695;52.960;6.188;2023-05-07T09:50:36;18.30;99.90
51615;DHT22;37695;52.960;6.188;2023-05-07T09:53:04;18.30;99.90
51615;DHT22;37695;52.960;6.188;2023-05-07T09:55:30;18.30;99.90
51615;DHT22;37695;52.960;6.188;2023-05-07T09:57:57;18.40;99.90
51615;DHT22;37695;52.960;6.188;2023-05-07T10:00:24;18.60;99.90
51615;DHT22;37695;52.960;6.188;2023-05-07T10:02:56;18.60;99.90
51615;DHT22;37695;52.960;6.188;2023-05-07T10:05:22;18.80;99.90
51615;DHT22;37695;52.960;6.188;2023-05-07T10:07:48;18.70;99.90
51615;DHT22;37695;52.960;6.188;2023-05-07T10:10:15;18.60;99.90
51615;DHT22;37695;52.960;6.188;2023-05-07T10:12:43;18.70;99.90
51615;DHT22;37695;52.960;6.188;2023-05-07T10:15:10;18.80;99.90
51615;DHT22;37695;52.960;6.188;2023-05-07T10:17:37;18.80;99.90
51615;DHT22;37695;52.960;6.188;2023-05-07T10:20:04;18.70;99.90
51615;DHT22;37695;52.960;6.188;2023-05-07T10:22:41;18.80;99.90
51615;DHT22;37695;52.960;6.188;2023-05-07T10:25:18;18.90;99.90
51615;DHT22;37695;52.960;6.188;2023-05-07T10:27:47;18.90;99.90
51615;DHT22;37695;52.960;6.188;2023-05-07T10:32:59;18.90;99.90
51615;DHT22;37695;52.960;6.188;2023-05-07T10:35:32;19.00;99.90
51615;DHT22;37695;52.960;6.188;2023-05-07T10:38:01;19.10;99.90
51615;DHT22;37695;52.960;6.188;2023-05-07T10:40:27;19.40;99.90
51615;DHT22;37695;52.960;6.188;2023-05-07T10:42:54;19.60;99.90
51615;DHT22;37695;52.960;6.188;2023-05-07T10:45:20;19.80;99.90
51615;DHT22;37695;52.960;6.188;2023-05-07T10:50:38;19.80;99.90
51615;DHT22;37695;52.960;6.188;2023-05-07T10:55:47;19.70;99.90
51615;DHT22;37695;52.960;6.188;2023-05-07T10:58:27;19.60;99.90
51615;DHT22;37695;52.960;6.188;2023-05-07T11:01:00;19.60;99.90
51615;DHT22;37695;52.960;6.188;2023-05-07T11:03:27;19.80;99.90
51615;DHT22;37695;52.960;6.188;2023-05-07T11:06:09;20.00;99.90
51615;DHT22;37695;52.960;6.188;2023-05-07T11:08:54;20.10;99.90
51615;DHT22;37695;52.960;6.188;2023-05-07T11:14:09;20.20;99.90
51615;DHT22;37695;52.960;6.188;2023-05-07T11:16:35;20.20;99.90
51615;DHT22;37695;52.960;6.188;2023-05-07T11:19:02;20.20;99.90
51615;DHT22;37695;52.960;6.188;2023-05-07T11:21:35;20.20;99.90
51615;DHT22;37695;52.960;6.188;2023-05-07T11:24:05;20.30;99.90
51615;DHT22;37695;52.960;6.188;2023-05-07T11:26:50;20.30;99.90
51615;DHT22;37695;52.960;6.188;2023-05-07T11:29:20;20.30;99.90
51615;DHT22;37695;52.960;6.188;2023-05-07T11:31:50;20.40;99.90
51615;DHT22;37695;52.960;6.188;2023-05-07T11:34:24;20.40;99.90
51615;DHT22;37695;52.960;6.188;2023-05-07T11:36:51;20.40;99.90
51615;DHT22;37695;52.960;6.188;2023-05-07T11:39:28;20.40;99.90
51615;DHT22;37695;52.960;6.188;2023-05-07T11:41:55;20.80;99.90
51615;DHT22;37695;52.960;6.188;2023-05-07T11:44:20;20.90;99.90
51615;DHT22;37695;52.960;6.188;2023-05-07T11:46:46;20.90;99.90
51615;DHT22;37695;52.960;6.188;2023-05-07T11:49:12;20.70;99.90
51615;DHT22;37695;52.960;6.188;2023-05-07T11:51:38;20.60;99.90
51615;DHT22;37695;52.960;6.188;2023-05-07T11:54:04;20.50;99.90
51615;DHT22;37695;52.960;6.188;2023-05-07T11:56:34;20.40;99.90
51615;DHT22;37695;52.960;6.188;2023-05-07T11:59:00;20.30;99.90
51615;DHT22;37695;52.960;6.188;2023-05-07T12:01:26;20.20;99.90
51615;DHT22;37695;52.960;6.188;2023-05-07T12:03:52;20.10;99.90
51615;DHT22;37695;52.960;6.188;2023-05-07T12:06:18;20.20;99.90
51615;DHT22;37695;52.960;6.188;2023-05-07T12:08:44;20.30;99.90
51615;DHT22;37695;52.960;6.188;2023-05-07T12:11:15;20.20;99.90
51615;DHT22;37695;52.960;6.188;2023-05-07T12:13:41;20.20;99.90
51615;DHT22;37695;52.960;6.188;2023-05-07T12:16:07;20.30;99.90
51615;DHT22;37695;52.960;6.188;2023-05-07T12:18:34;20.30;99.90
51615;DHT22;37695;52.960;6.188;2023-05-07T12:21:00;20.30;99.90
51615;DHT22;37695;52.960;6.188;2023-05-07T12:23:26;20.40;99.90
51615;DHT22;37695;52.960;6.188;2023-05-07T12:25:52;20.40;99.90
51615;DHT22;37695;52.960;6.188;2023-05-07T12:28:19;20.40;99.90
51615;DHT22;37695;52.960;6.188;2023-05-07T12:30:47;20.40;99.90
51615;DHT22;37695;52.960;6.188;2023-05-07T12:33:23;20.40;99.90
51615;DHT22;37695;52.960;6.188;2023-05-07T12:35:49;20.50;99.90
51615;DHT22;37695;52.960;6.188;2023-05-07T12:38:16;20.60;99.90
51615;DHT22;37695;52.960;6.188;2023-05-07T12:40:47;20.80;99.90
51615;DHT22;37695;52.960;6.188;2023-05-07T12:43:25;21.00;99.90
51615;DHT22;37695;52.960;6.188;2023-05-07T12:45:53;21.10;99.90
51615;DHT22;37695;52.960;6.188;2023-05-07T12:48:19;21.20;99.90
51615;DHT22;37695;52.960;6.188;2023-05-07T12:50:48;21.20;99.90
51615;DHT22;37695;52.960;6.188;2023-05-07T12:53:14;21.30;99.90
51615;DHT22;37695;52.960;6.188;2023-05-07T12:55:45;21.40;99.90
51615;DHT22;37695;52.960;6.188;2023-05-07T12:58:20;21.40;99.90
51615;DHT22;37695;52.960;6.188;2023-05-07T13:00:48;21.30;99.90
51615;DHT22;37695;52.960;6.188;2023-05-07T13:03:21;21.30;99.90
51615;DHT22;37695;52.960;6.188;2023-05-07T13:05:48;21.30;99.90
51615;DHT22;37695;52.960;6.188;2023-05-07T13:08:24;21.40;99.90
51615;DHT22;37695;52.960;6.188;2023-05-07T13:10:49;21.50;99.90
51615;DHT22;37695;52.960;6.188;2023-05-07T13:13:15;21.40;99.90
51615;DHT22;37695;52.960;6.188;2023-05-07T13:15:40;21.50;99.90
51615;DHT22;37695;52.960;6.188;2023-05-07T13:18:06;21.60;99.90
51615;DHT22;37695;52.960;6.188;2023-05-07T13:20:32;21.50;99.90
51615;DHT22;37695;52.960;6.188;2023-05-07T13:22:57;21.50;99.90
51615;DHT22;37695;52.960;6.188;2023-05-07T13:25:23;21.50;99.90
51615;DHT22;37695;52.960;6.188;2023-05-07T13:27:48;21.50;99.90
51615;DHT22;37695;52.960;6.188;2023-05-07T13:30:14;21.60;99.90
51615;DHT22;37695;52.960;6.188;2023-05-07T13:32:39;21.60;99.90
51615;DHT22;37695;52.960;6.188;2023-05-07T13:35:05;21.50;99.90
51615;DHT22;37695;52.960;6.188;2023-05-07T13:37:31;21.50;99.90
51615;DHT22;37695;52.960;6.188;2023-05-07T13:39:57;21.50;99.90
51615;DHT22;37695;52.960;6.188;2023-05-07T13:42:22;21.60;99.90
51615;DHT22;37695;52.960;6.188;2023-05-07T13:44:48;21.70;99.90
51615;DHT22;37695;52.960;6.188;2023-05-07T13:47:13;21.70;99.90
51615;DHT22;37695;52.960;6.188;2023-05-07T13:49:39;21.70;99.90
51615;DHT22;37695;52.960;6.188;2023-05-07T13:52:04;21.80;99.90
51615;DHT22;37695;52.960;6.188;2023-05-07T13:54:30;21.80;99.90
51615;DHT22;37695;52.960;6.188;2023-05-07T13:56:55;21.90;99.90
51615;DHT22;37695;52.960;6.188;2023-05-07T13:59:21;21.80;99.90
51615;DHT22;37695;52.960;6.188;2023-05-07T14:01:46;21.80;99.90
51615;DHT22;37695;52.960;6.188;2023-05-07T14:04:12;21.90;99.90
51615;DHT22;37695;52.960;6.188;2023-05-07T14:06:38;21.90;99.90
51615;DHT22;37695;52.960;6.188;2023-05-07T14:09:04;21.80;99.90
51615;DHT22;37695;52.960;6.188;2023-05-07T14:11:29;21.80;99.90
51615;DHT22;37695;52.960;6.188;2023-05-07T14:13:55;21.70;99.90
51615;DHT22;37695;52.960;6.188;2023-05-07T14:16:22;21.60;99.90
51615;DHT22;37695;52.960;6.188;2023-05-07T14:18:47;21.70;99.90
51615;DHT22;37695;52.960;6.188;2023-05-07T14:21:13;21.60;99.90
51615;DHT22;37695;52.960;6.188;2023-05-07T14:23:39;21.80;99.90
51615;DHT22;37695;52.960;6.188;2023-05-07T14:26:04;21.90;99.90
51615;DHT22;37695;52.960;6.188;2023-05-07T14:28:30;21.90;99.90
51615;DHT22;37695;52.960;6.188;2023-05-07T14:30:56;21.90;99.90
51615;DHT22;37695;52.960;6.188;2023-05-07T14:33:21;22.00;99.90
51615;DHT22;37695;52.960;6.188;2023-05-07T14:35:47;22.00;99.90
51615;DHT22;37695;52.960;6.188;2023-05-07T14:38:14;22.10;99.90
51615;DHT22;37695;52.960;6.188;2023-05-07T14:40:41;22.20;99.90
51615;DHT22;37695;52.960;6.188;2023-05-07T14:43:06;22.50;99.90
51615;DHT22;37695;52.960;6.188;2023-05-07T14:45:32;22.50;99.90
51615;DHT22;37695;52.960;6.188;2023-05-07T14:47:57;22.50;99.90
51615;DHT22;37695;52.960;6.188;2023-05-07T14:50:23;22.50;99.90
51615;DHT22;37695;52.960;6.188;2023-05-07T14:52:48;22.50;99.90
51615;DHT22;37695;52.960;6.188;2023-05-07T14:55:14;22.70;99.90
51615;DHT22;37695;52.960;6.188;2023-05-07T14:57:39;22.80;99.90
51615;DHT22;37695;52.960;6.188;2023-05-07T15:00:06;23.00;99.90
51615;DHT22;37695;52.960;6.188;2023-05-07T15:02:32;23.00;99.90
51615;DHT22;37695;52.960;6.188;2023-05-07T15:04:59;23.00;99.90
51615;DHT22;37695;52.960;6.188;2023-05-07T15:07:24;23.00;99.90
51615;DHT22;37695;52.960;6.188;2023-05-07T15:09:50;23.00;99.90
51615;DHT22;37695;52.960;6.188;2023-05-07T15:12:16;22.90;99.90
51615;DHT22;37695;52.960;6.188;2023-05-07T15:14:42;22.70;99.90
51615;DHT22;37695;52.960;6.188;2023-05-07T15:17:07;22.80;99.90
51615;DHT22;37695;52.960;6.188;2023-05-07T15:19:33;22.80;99.90
51615;DHT22;37695;52.960;6.188;2023-05-07T15:21:59;22.70;99.90
51615;DHT22;37695;52.960;6.188;2023-05-07T15:24:29;22.70;99.90
51615;DHT22;37695;52.960;6.188;2023-05-07T15:26:54;22.80;99.90
51615;DHT22;37695;52.960;6.188;2023-05-07T15:29:20;22.80;99.90
51615;DHT22;37695;52.960;6.188;2023-05-07T15:31:46;22.70;99.90
51615;DHT22;37695;52.960;6.188;2023-05-07T15:34:12;22.70;99.90
51615;DHT22;37695;52.960;6.188;2023-05-07T15:36:37;22.60;99.90